createdAt,value
2018-08-03T00:00:32.664Z,8.65
2018-08-03T00:03:00.723Z,8.58
2018-08-03T00:05:28.787Z,11.12
2018-08-03T00:07:56.832Z,9.65
2018-08-03T00:10:24.880Z,8.98
2018-08-03T00:12:52.920Z,9.30
2018-08-03T00:15:20.972Z,10.55
2018-08-03T00:17:49.012Z,9.95
2018-08-03T00:20:17.063Z,10.10
2018-08-03T00:22:45.104Z,9.58
2018-08-03T00:25:13.169Z,9.20
2018-08-03T00:27:41.220Z,8.95
2018-08-03T00:30:16.088Z,9.48
2018-08-03T00:32:44.124Z,10.50
2018-08-03T00:35:12.189Z,8.70
2018-08-03T00:37:40.224Z,8.98
2018-08-03T00:40:08.281Z,9.10
2018-08-03T00:42:36.324Z,8.23
2018-08-03T00:45:05.044Z,8.55
2018-08-03T00:47:33.076Z,8.38
2018-08-03T00:50:01.141Z,9.15
2018-08-03T00:52:29.177Z,8.88
2018-08-03T00:54:57.232Z,7.83
2018-08-03T00:57:25.273Z,8.33
2018-08-03T00:59:53.321Z,8.85
2018-08-03T01:02:21.340Z,8.45
2018-08-03T01:04:49.424Z,8.93
2018-08-03T01:07:17.453Z,8.53
2018-08-03T01:09:45.476Z,8.98
2018-08-03T01:12:13.509Z,8.98
2018-08-03T01:14:41.543Z,8.63
2018-08-03T01:17:09.567Z,8.05
2018-08-03T01:19:37.600Z,9.20
2018-08-03T01:22:05.628Z,9.20
2018-08-03T01:24:33.653Z,8.18
2018-08-03T01:27:01.684Z,8.33
2018-08-03T01:29:29.708Z,8.53
2018-08-03T01:31:57.723Z,9.28
2018-08-03T01:34:25.747Z,8.13
2018-08-03T01:36:53.768Z,8.78
2018-08-03T01:39:21.807Z,8.73
2018-08-03T01:41:49.824Z,8.93
2018-08-03T01:44:17.848Z,8.45
2018-08-03T01:46:45.860Z,8.13
2018-08-03T01:49:13.888Z,8.15
2018-08-03T01:51:41.908Z,9.43
2018-08-03T01:54:09.734Z,8.95
2018-08-03T01:56:37.752Z,8.65
2018-08-03T01:59:05.848Z,8.20
2018-08-03T02:01:33.876Z,8.60
2018-08-03T02:04:01.913Z,8.25
2018-08-03T02:06:30.353Z,9.38
2018-08-03T02:08:58.536Z,8.88
2018-08-03T02:11:26.734Z,7.53
2018-08-03T02:13:54.752Z,8.70
2018-08-03T02:16:22.779Z,9.00
2018-08-03T02:18:50.824Z,8.73
2018-08-03T02:21:18.870Z,8.60
2018-08-03T02:23:46.882Z,9.20
2018-08-03T02:26:14.916Z,8.28
2018-08-03T02:28:42.933Z,8.50
2018-08-03T02:31:10.996Z,7.87
2018-08-03T02:33:39.048Z,8.60
2018-08-03T02:36:07.121Z,8.23
2018-08-03T02:38:35.177Z,7.70
2018-08-03T02:41:03.317Z,7.62
2018-08-03T02:43:31.380Z,8.35
2018-08-03T02:45:59.496Z,7.70
2018-08-03T02:48:27.568Z,8.60
2018-08-03T02:50:55.629Z,7.35
2018-08-03T02:53:23.690Z,8.48
2018-08-03T02:55:51.760Z,8.25
2018-08-03T02:58:19.872Z,8.28
2018-08-03T03:00:47.940Z,7.67
2018-08-03T03:03:16.005Z,8.10
2018-08-03T03:05:44.048Z,8.55
2018-08-03T03:08:12.076Z,8.05
2018-08-03T03:10:40.130Z,8.15
2018-08-03T03:13:08.176Z,8.48
2018-08-03T03:15:36.472Z,8.23
2018-08-03T03:18:04.510Z,9.38
2018-08-03T03:20:32.708Z,8.18
2018-08-03T03:23:00.886Z,8.93
2018-08-03T03:25:28.928Z,8.40
2018-08-03T03:27:56.967Z,8.13
2018-08-03T03:30:25.011Z,8.38
2018-08-03T03:32:53.053Z,8.73
2018-08-03T03:35:21.093Z,7.90
2018-08-03T03:37:49.201Z,8.10
2018-08-03T03:40:17.244Z,7.97
2018-08-03T03:42:45.292Z,8.55
2018-08-03T03:45:13.338Z,8.63
2018-08-03T03:47:41.372Z,8.18
2018-08-03T03:50:09.432Z,8.30
2018-08-03T03:52:37.468Z,8.48
2018-08-03T03:55:05.694Z,8.45
2018-08-03T03:57:33.724Z,7.65
2018-08-03T04:00:01.776Z,8.98
2018-08-03T04:02:29.804Z,9.43
2018-08-03T04:04:57.886Z,8.05
2018-08-03T04:07:25.943Z,9.45
2018-08-03T04:09:54.008Z,9.40
2018-08-03T04:12:22.085Z,7.67
2018-08-03T04:14:50.140Z,9.13
2018-08-03T04:17:18.456Z,8.15
2018-08-03T04:19:46.516Z,8.88
2018-08-03T04:22:14.580Z,8.55
2018-08-03T04:24:42.641Z,8.10
2018-08-03T04:27:10.759Z,9.40
2018-08-03T04:29:38.827Z,8.33
2018-08-03T04:32:06.892Z,9.18
2018-08-03T04:34:34.952Z,9.50
2018-08-03T04:37:03.009Z,8.70
2018-08-03T04:39:31.069Z,7.65
2018-08-03T04:41:59.133Z,9.25
2018-08-03T04:44:27.192Z,8.73
2018-08-03T04:46:55.261Z,8.35
2018-08-03T04:49:23.321Z,8.60
2018-08-03T04:51:51.381Z,9.65
2018-08-03T04:54:19.436Z,9.75
2018-08-03T04:56:47.592Z,8.05
2018-08-03T04:59:15.632Z,8.75
2018-08-03T05:01:43.691Z,8.60
2018-08-03T05:04:11.753Z,9.05
2018-08-03T05:06:39.824Z,8.70
2018-08-03T05:09:08.227Z,7.87
2018-08-03T05:11:36.419Z,8.00
2018-08-03T05:14:04.492Z,8.08
2018-08-03T05:16:32.554Z,8.23
2018-08-03T05:19:00.608Z,8.73
2018-08-03T05:21:28.668Z,7.40
2018-08-03T05:23:56.752Z,7.85
2018-08-03T05:26:24.815Z,8.35
2018-08-03T05:28:52.936Z,8.15
2018-08-03T05:31:21.208Z,8.95
2018-08-03T05:33:49.314Z,8.45
2018-08-03T05:36:17.532Z,9.43
2018-08-03T05:38:45.540Z,7.83
2018-08-03T05:41:13.610Z,9.68
2018-08-03T05:43:41.672Z,7.55
2018-08-03T05:46:09.732Z,8.10
2018-08-03T05:48:38.000Z,8.30
2018-08-03T05:51:06.073Z,9.08
2018-08-03T05:53:34.128Z,8.20
2018-08-03T05:56:02.202Z,8.80
2018-08-03T05:58:30.040Z,8.13
2018-08-03T06:00:58.147Z,8.93
2018-08-03T06:03:26.212Z,9.35
2018-08-03T06:05:54.479Z,7.30
2018-08-03T06:08:22.532Z,8.60
2018-08-03T06:10:50.593Z,7.78
2018-08-03T06:13:18.665Z,7.65
2018-08-03T06:15:46.716Z,9.10
2018-08-03T06:18:14.796Z,9.35
2018-08-03T06:20:42.905Z,9.03
2018-08-03T06:23:10.900Z,9.18
2018-08-03T06:25:38.972Z,8.68
2018-08-03T06:28:07.032Z,7.83
2018-08-03T06:30:35.089Z,7.65
2018-08-03T06:33:03.168Z,8.20
2018-08-03T06:35:31.232Z,8.25
2018-08-03T06:37:59.499Z,7.22
2018-08-03T06:40:27.561Z,7.30
2018-08-03T06:42:55.632Z,6.60
2018-08-03T06:45:23.475Z,6.57
2018-08-03T06:47:51.544Z,7.30
2018-08-03T06:50:19.610Z,6.00
2018-08-03T06:52:47.720Z,6.00
2018-08-03T06:55:15.793Z,6.73
2018-08-03T06:57:43.852Z,6.10
2018-08-03T07:00:14.808Z,6.03
2018-08-03T07:02:42.935Z,5.80
2018-08-03T07:05:10.960Z,5.70
2018-08-03T07:10:13.541Z,6.60
2018-08-03T07:12:41.604Z,6.30
2018-08-03T07:15:09.662Z,5.47
2018-08-03T07:17:37.728Z,6.03
2018-08-03T07:20:05.841Z,5.60
2018-08-03T07:22:34.062Z,5.80
2018-08-03T07:25:02.140Z,5.60
2018-08-03T07:27:30.217Z,5.80
2018-08-03T07:29:58.355Z,6.20
2018-08-03T07:32:26.227Z,6.20
2018-08-03T07:34:54.288Z,6.03
2018-08-03T07:37:22.348Z,5.77
2018-08-03T07:39:50.405Z,5.70
2018-08-03T07:42:18.471Z,5.43
2018-08-03T07:44:46.539Z,4.97
2018-08-03T07:47:14.598Z,5.97
2018-08-03T07:49:42.666Z,6.70
2018-08-03T07:52:10.732Z,6.20
2018-08-03T07:54:38.798Z,6.00
2018-08-03T07:57:06.868Z,6.30
2018-08-03T07:59:34.912Z,5.73
2018-08-03T08:02:02.984Z,5.90
2018-08-03T08:04:31.052Z,5.57
2018-08-03T08:06:59.112Z,5.50
2018-08-03T08:09:27.176Z,6.40
2018-08-03T08:11:55.232Z,6.30
2018-08-03T08:14:23.288Z,6.47
2018-08-03T08:16:51.407Z,5.67
2018-08-03T08:19:19.407Z,6.17
2018-08-03T08:21:47.464Z,5.57
2018-08-03T08:24:15.532Z,6.00
2018-08-03T08:26:43.589Z,5.90
2018-08-03T08:29:11.652Z,6.10
2018-08-03T08:31:39.726Z,6.90
2018-08-03T08:34:07.796Z,5.17
2018-08-03T08:36:35.872Z,6.00
2018-08-03T08:39:05.937Z,5.30
2018-08-03T08:41:33.983Z,5.90
2018-08-03T08:44:02.048Z,5.50
2018-08-03T08:46:30.104Z,5.63
2018-08-03T08:48:58.226Z,5.60
2018-08-03T08:51:26.299Z,5.67
2018-08-03T08:53:54.356Z,5.90
2018-08-03T08:56:22.408Z,5.33
2018-08-03T08:58:50.472Z,5.33
2018-08-03T09:01:18.550Z,5.80
2018-08-03T09:03:46.665Z,5.17
2018-08-03T09:06:14.728Z,6.27
2018-08-03T09:08:42.796Z,5.40
2018-08-03T09:11:10.885Z,5.30
2018-08-03T09:13:38.952Z,5.83
2018-08-03T09:16:07.259Z,5.40
2018-08-03T09:18:35.327Z,5.90
2018-08-03T09:21:03.388Z,5.77
2018-08-03T09:23:31.459Z,5.80
2018-08-03T09:25:59.508Z,5.73
2018-08-03T09:28:27.640Z,5.50
2018-08-03T09:30:56.009Z,5.53
2018-08-03T09:33:24.037Z,5.10
2018-08-03T09:35:52.116Z,5.60
2018-08-03T09:38:20.336Z,7.83
2018-08-03T09:40:48.384Z,4.97
2018-08-03T09:43:16.447Z,5.47
2018-08-03T09:45:44.502Z,5.10
2018-08-03T09:48:12.564Z,6.00
2018-08-03T09:50:40.633Z,5.63
2018-08-03T09:53:08.704Z,5.33
2018-08-03T09:55:36.761Z,5.60
2018-08-03T09:58:05.017Z,5.97
2018-08-03T10:00:38.543Z,5.30
2018-08-03T10:03:06.621Z,5.50
2018-08-03T10:05:34.664Z,5.37
2018-08-03T10:08:02.708Z,5.20
2018-08-03T10:10:30.749Z,4.90
2018-08-03T10:12:58.793Z,5.10
2018-08-03T10:15:26.860Z,5.97
2018-08-03T10:17:54.880Z,5.13
2018-08-03T10:20:22.916Z,5.30
2018-08-03T10:22:50.960Z,5.47
2018-08-03T10:25:19.001Z,5.47
2018-08-03T10:27:47.050Z,5.27
2018-08-03T10:30:15.080Z,4.90
2018-08-03T10:32:43.119Z,4.53
2018-08-03T10:35:11.233Z,5.17
2018-08-03T10:37:39.204Z,4.53
2018-08-03T10:40:07.264Z,5.10
2018-08-03T10:42:35.308Z,5.53
2018-08-03T10:45:03.380Z,4.70
2018-08-03T10:47:31.436Z,5.40
2018-08-03T10:49:59.480Z,5.33
2018-08-03T10:52:27.528Z,5.13
2018-08-03T10:54:55.596Z,5.03
2018-08-03T10:57:23.689Z,5.60
2018-08-03T10:59:51.740Z,4.87
2018-08-03T11:02:19.776Z,5.23
2018-08-03T11:04:47.848Z,5.30
2018-08-03T11:07:15.904Z,5.50
2018-08-03T11:09:43.964Z,6.10
2018-08-03T11:12:12.021Z,5.67
2018-08-03T11:14:40.120Z,5.37
2018-08-03T11:17:08.180Z,4.70
2018-08-03T11:19:43.109Z,5.47
2018-08-03T11:22:11.168Z,5.07
2018-08-03T11:24:39.231Z,5.07
2018-08-03T11:27:07.442Z,5.20
2018-08-03T11:29:35.509Z,5.30
2018-08-03T11:32:03.584Z,5.00
2018-08-03T11:34:31.639Z,5.00
2018-08-03T11:37:00.644Z,5.17
2018-08-03T11:39:28.715Z,5.13
2018-08-03T11:41:56.788Z,5.53
2018-08-03T11:44:24.884Z,5.13
2018-08-03T11:46:52.941Z,5.10
2018-08-03T11:49:21.004Z,5.10
2018-08-03T11:51:49.116Z,5.50
2018-08-03T11:54:17.203Z,4.90
2018-08-03T11:56:45.304Z,4.60
2018-08-03T11:59:13.364Z,5.77
2018-08-03T12:01:41.420Z,5.53
2018-08-03T12:04:09.492Z,5.30
2018-08-03T12:06:37.705Z,6.30
2018-08-03T12:09:06.193Z,5.17
2018-08-03T12:11:34.253Z,5.17
2018-08-03T12:14:02.320Z,4.40
2018-08-03T12:16:30.385Z,5.70
2018-08-03T12:18:58.444Z,5.10
2018-08-03T12:21:26.504Z,5.17
2018-08-03T12:23:54.666Z,4.90
2018-08-03T12:26:22.656Z,4.77
2018-08-03T12:28:50.728Z,5.40
2018-08-03T12:31:18.829Z,5.10
2018-08-03T12:33:46.844Z,5.20
2018-08-03T12:36:14.908Z,5.27
2018-08-03T12:38:42.968Z,5.50
2018-08-03T12:41:11.024Z,5.40
2018-08-03T12:43:39.080Z,4.90
2018-08-03T12:46:07.215Z,5.60
2018-08-03T12:48:35.206Z,5.60
2018-08-03T12:51:03.292Z,5.10
2018-08-03T12:53:31.388Z,4.63
2018-08-03T12:55:59.461Z,5.00
2018-08-03T12:58:27.520Z,5.10
2018-08-03T13:00:55.628Z,5.20
2018-08-03T13:03:23.692Z,5.20
2018-08-03T13:05:51.745Z,5.00
2018-08-03T13:08:19.640Z,5.77
2018-08-03T13:10:47.622Z,5.60
2018-08-03T13:13:15.723Z,5.30
2018-08-03T13:15:43.718Z,5.60
2018-08-03T13:18:11.756Z,5.03
2018-08-03T13:20:39.805Z,5.60
2018-08-03T13:23:07.844Z,5.30
2018-08-03T13:25:35.885Z,4.63
2018-08-03T13:28:03.932Z,4.83
2018-08-03T13:30:31.981Z,5.57
2018-08-03T13:33:00.021Z,5.27
2018-08-03T13:35:28.061Z,4.70
2018-08-03T13:37:56.092Z,5.17
2018-08-03T13:40:24.136Z,4.70
2018-08-03T13:42:52.172Z,4.37
2018-08-03T13:45:20.464Z,4.60
2018-08-03T13:47:48.467Z,5.13
2018-08-03T13:50:16.543Z,5.07
2018-08-03T13:52:44.573Z,4.60
2018-08-03T13:55:12.772Z,4.80
2018-08-03T13:57:40.827Z,4.93
2018-08-03T14:00:10.256Z,5.63
2018-08-03T14:02:38.296Z,4.70
2018-08-03T14:05:06.208Z,5.07
2018-08-03T14:07:34.248Z,4.30
2018-08-03T14:10:02.373Z,5.10
2018-08-03T14:12:30.412Z,4.93
2018-08-03T14:14:58.455Z,5.63
2018-08-03T14:17:26.489Z,5.07
2018-08-03T14:19:54.536Z,4.83
2018-08-03T14:22:22.592Z,4.97
2018-08-03T14:24:50.640Z,5.23
2018-08-03T14:27:18.676Z,5.20
2018-08-03T14:29:46.736Z,5.50
2018-08-03T14:32:14.776Z,5.50
2018-08-03T14:34:42.820Z,5.07
2018-08-03T14:37:10.861Z,6.10
2018-08-03T14:39:38.904Z,5.57
2018-08-03T14:42:07.031Z,5.27
2018-08-03T14:44:35.141Z,5.30
2018-08-03T14:47:03.184Z,5.27
2018-08-03T14:49:31.224Z,4.80
2018-08-03T14:51:59.272Z,5.07
2018-08-03T14:54:27.309Z,5.43
2018-08-03T14:56:55.360Z,5.50
2018-08-03T14:59:23.402Z,6.00
2018-08-03T15:01:51.444Z,4.90
2018-08-03T15:04:19.484Z,5.67
2018-08-03T15:06:47.560Z,5.40
2018-08-03T15:09:15.604Z,5.27
2018-08-03T15:11:43.650Z,6.40
2018-08-03T15:14:11.687Z,5.03
2018-08-03T15:16:39.736Z,5.50
2018-08-03T15:19:07.811Z,6.03
2018-08-03T15:21:35.863Z,4.90
2018-08-03T15:24:03.946Z,5.70
2018-08-03T15:26:31.952Z,5.20
2018-08-03T15:29:00.046Z,4.93
2018-08-03T15:31:28.052Z,6.20
2018-08-03T15:33:56.092Z,5.57
2018-08-03T15:36:24.137Z,4.53
2018-08-03T15:38:52.172Z,5.40
2018-08-03T15:41:20.220Z,4.87
2018-08-03T15:43:48.257Z,5.40
2018-08-03T15:46:16.299Z,6.20
2018-08-03T15:48:44.336Z,4.80
2018-08-03T15:51:12.384Z,6.40
2018-08-03T15:53:40.429Z,5.83
2018-08-03T15:56:08.472Z,5.00
2018-08-03T15:58:36.527Z,5.63
2018-08-03T16:01:04.584Z,5.60
2018-08-03T16:03:32.628Z,5.63
2018-08-03T16:06:00.695Z,5.07
2018-08-03T16:08:28.972Z,5.50
2018-08-03T16:10:57.028Z,5.20
2018-08-03T16:13:25.112Z,5.80
2018-08-03T16:15:53.584Z,5.37
2018-08-03T16:18:21.761Z,5.03
2018-08-03T16:20:49.984Z,5.73
2018-08-03T16:23:18.080Z,5.00
2018-08-03T16:25:46.148Z,6.30
2018-08-03T16:28:14.212Z,6.20
2018-08-03T16:30:42.284Z,4.90
2018-08-03T16:33:10.377Z,5.10
2018-08-03T16:35:38.440Z,5.47
2018-08-03T16:38:06.548Z,5.40
2018-08-03T16:40:34.662Z,5.73
2018-08-03T16:43:02.735Z,5.33
2018-08-03T16:45:31.133Z,5.30
2018-08-03T16:47:59.197Z,6.53
2018-08-03T16:50:27.263Z,5.30
2018-08-03T16:52:55.331Z,5.50
2018-08-03T16:55:23.416Z,5.33
2018-08-03T16:57:51.476Z,5.17
2018-08-03T17:00:19.553Z,4.80
2018-08-03T17:02:48.133Z,5.50
2018-08-03T17:05:16.240Z,5.27
2018-08-03T17:07:44.555Z,4.77
2018-08-03T17:10:12.608Z,4.60
2018-08-03T17:12:40.989Z,4.40
2018-08-03T17:15:09.096Z,5.47
2018-08-03T17:17:37.225Z,5.03
2018-08-03T17:20:05.571Z,4.77
2018-08-03T17:22:33.633Z,5.40
2018-08-03T17:25:01.690Z,4.80
2018-08-03T17:27:29.743Z,5.00
2018-08-03T17:29:57.846Z,4.60
2018-08-03T17:32:25.900Z,5.13
2018-08-03T17:34:53.960Z,4.33
2018-08-03T17:37:22.018Z,5.47
2018-08-03T17:39:50.123Z,4.30
2018-08-03T17:42:18.197Z,4.50
2018-08-03T17:44:46.323Z,4.83
2018-08-03T17:47:14.401Z,5.00
2018-08-03T17:49:42.452Z,5.00
2018-08-03T17:52:10.529Z,5.50
2018-08-03T17:54:38.580Z,5.30
2018-08-03T17:57:06.652Z,5.20
2018-08-03T17:59:34.740Z,5.17
2018-08-03T18:02:02.808Z,4.30
2018-08-03T18:04:30.877Z,5.23
2018-08-03T18:06:58.948Z,6.53
2018-08-03T18:09:27.080Z,6.53
2018-08-03T18:11:55.162Z,6.30
2018-08-03T18:14:23.217Z,5.57
2018-08-03T18:16:51.280Z,5.80
2018-08-03T18:19:19.347Z,5.67
2018-08-03T18:21:47.428Z,6.10
2018-08-03T18:24:15.482Z,6.60
2018-08-03T18:26:43.532Z,5.17
2018-08-03T18:29:11.619Z,5.17
2018-08-03T18:31:39.676Z,6.40
2018-08-03T18:34:07.749Z,5.83
2018-08-03T18:36:35.807Z,5.27
2018-08-03T18:39:05.529Z,5.90
2018-08-03T18:41:33.601Z,5.80
2018-08-03T18:44:01.660Z,5.33
2018-08-03T18:46:29.781Z,5.00
2018-08-03T18:48:57.879Z,5.20
2018-08-03T18:51:26.012Z,5.40
2018-08-03T18:53:54.085Z,7.60
2018-08-03T18:56:22.176Z,6.20
2018-08-03T18:58:50.412Z,6.70
2018-08-03T19:01:18.492Z,7.60
2018-08-03T19:03:46.544Z,6.83
2018-08-03T19:06:14.616Z,6.10
2018-08-03T19:08:42.687Z,5.60
2018-08-03T19:11:10.756Z,5.83
2018-08-03T19:13:38.899Z,6.60
2018-08-03T19:16:06.949Z,5.53
2018-08-03T19:18:35.036Z,5.47
2018-08-03T19:21:03.089Z,6.07
2018-08-03T19:23:31.161Z,5.70
2018-08-03T19:25:59.212Z,5.33
2018-08-03T19:28:27.353Z,6.10
2018-08-03T19:30:55.424Z,6.10
2018-08-03T19:33:23.496Z,5.67
2018-08-03T19:35:51.563Z,5.90
2018-08-03T19:38:19.637Z,5.77
2018-08-03T19:40:47.751Z,5.83
2018-08-03T19:43:15.820Z,6.30
2018-08-03T19:45:43.948Z,5.20
2018-08-03T19:48:12.024Z,4.95
2018-08-03T19:50:40.140Z,5.47
2018-08-03T19:53:08.310Z,5.12
2018-08-03T19:55:36.447Z,6.90
2018-08-03T19:58:04.608Z,6.85
2018-08-03T20:00:32.673Z,5.37
2018-08-03T20:03:00.775Z,5.47
2018-08-03T20:05:28.800Z,5.60
2018-08-03T20:07:56.879Z,5.20
2018-08-03T20:10:24.924Z,5.40
2018-08-03T20:12:52.979Z,5.75
2018-08-03T20:15:21.028Z,6.22
2018-08-03T20:17:49.166Z,5.12
2018-08-03T20:20:17.188Z,5.80
2018-08-03T20:22:45.277Z,7.33
2018-08-03T20:25:13.392Z,5.55
2018-08-03T20:27:41.444Z,5.90
2018-08-03T20:30:09.488Z,5.92
2018-08-03T20:32:37.540Z,5.90
2018-08-03T20:35:06.080Z,6.28
2018-08-03T20:37:34.148Z,6.00
2018-08-03T20:40:02.361Z,5.75
2018-08-03T20:42:30.416Z,6.00
2018-08-03T20:44:58.452Z,5.47
2018-08-03T20:47:26.562Z,5.53
2018-08-03T20:49:54.652Z,5.87
2018-08-03T20:52:22.701Z,5.55
2018-08-03T20:54:50.741Z,5.70
2018-08-03T20:57:18.784Z,5.92
2018-08-03T20:59:46.832Z,7.30
2018-08-03T21:02:14.888Z,6.12
2018-08-03T21:04:42.940Z,6.90
2018-08-03T21:07:10.980Z,5.65
2018-08-03T21:09:39.032Z,6.08
2018-08-03T21:12:07.086Z,6.42
2018-08-03T21:14:35.137Z,5.50
2018-08-03T21:17:03.180Z,5.12
2018-08-03T21:19:31.234Z,6.33
2018-08-03T21:21:59.276Z,5.45
2018-08-03T21:24:27.321Z,6.20
2018-08-03T21:26:55.151Z,5.00
2018-08-03T21:29:23.336Z,5.33
2018-08-03T21:31:51.361Z,5.80
2018-08-03T21:34:19.420Z,6.25
2018-08-03T21:36:47.470Z,6.10
2018-08-03T21:39:15.504Z,6.10
2018-08-03T21:41:43.579Z,5.75
2018-08-03T21:44:11.620Z,6.20
2018-08-03T21:46:39.672Z,5.37
2018-08-03T21:49:07.732Z,5.95
2018-08-03T21:51:35.784Z,5.83
2018-08-03T21:54:04.180Z,6.15
2018-08-03T21:56:32.211Z,5.80
2018-08-03T21:59:00.256Z,5.90
2018-08-03T22:01:28.301Z,6.17
2018-08-03T22:03:56.344Z,6.15
2018-08-03T22:06:24.420Z,6.33
2018-08-03T22:08:52.471Z,6.55
2018-08-03T22:11:20.504Z,5.97
2018-08-03T22:13:48.552Z,6.50
2018-08-03T22:16:16.635Z,6.12
2018-08-03T22:18:44.735Z,7.60
2018-08-03T22:21:12.719Z,6.03
2018-08-03T22:23:40.756Z,6.22
2018-08-03T22:26:08.792Z,6.20
2018-08-03T22:28:36.844Z,5.30
2018-08-03T22:31:04.884Z,6.00
2018-08-03T22:33:32.940Z,6.20
2018-08-03T22:36:00.981Z,5.70
2018-08-03T22:38:29.027Z,5.62
2018-08-03T22:40:57.063Z,5.65
2018-08-03T22:43:25.115Z,6.25
2018-08-03T22:45:53.153Z,5.92
2018-08-03T22:48:21.195Z,6.40
2018-08-03T22:50:49.236Z,5.47
2018-08-03T22:53:17.275Z,6.08
2018-08-03T22:55:45.307Z,5.47
2018-08-03T22:58:13.351Z,6.47
2018-08-03T23:00:41.383Z,5.90
2018-08-03T23:03:09.436Z,5.70
2018-08-03T23:05:37.504Z,6.05
2018-08-03T23:08:05.835Z,5.47
2018-08-03T23:10:33.856Z,5.97
2018-08-03T23:13:01.912Z,6.05
2018-08-03T23:15:29.977Z,6.28
2018-08-03T23:17:58.031Z,5.42
2018-08-03T23:20:26.087Z,6.10
2018-08-03T23:23:00.533Z,6.47
2018-08-03T23:25:28.596Z,5.97
2018-08-03T23:27:56.920Z,6.78
2018-08-03T23:30:24.987Z,5.92
2018-08-03T23:32:53.048Z,5.15
2018-08-03T23:35:21.116Z,7.03
2018-08-03T23:37:49.232Z,6.15
2018-08-03T23:40:17.302Z,6.67
2018-08-03T23:42:45.365Z,7.10
2018-08-03T23:45:13.428Z,6.42
2018-08-03T23:47:41.487Z,5.87
2018-08-03T23:50:14.606Z,5.72
2018-08-03T23:52:42.674Z,5.20
2018-08-03T23:55:10.736Z,6.33
2018-08-03T23:57:38.789Z,5.83
